Time;durP1;ratioP1;P1;durP2;ratioP2;P2;SDS_P1;SDS_P2;PMS_P1;PMS_P2;Temp;Humidity;BMP_temperature;BMP_pressure;BME280_temperature;BME280_humidity;BME280_pressure;Samples;Min_cycle;Max_cycle;Signal;HPM_P1;HPM_P2
2023/04/25 00:00:16;;;;;;;1.80;0.95;;;;;;;6.22;77.64;101098.00;5008794;28;20046;-42
2023/04/25 00:02:43;;;;;;;1.40;1.20;;;;;;;6.18;77.64;101095.06;5008375;28;20057;-42
2023/04/25 00:05:10;;;;;;;3.10;0.98;;;;;;;6.14;77.66;101091.31;4991091;28;20054;-44
2023/04/25 00:07:38;;;;;;;1.90;1.23;;;;;;;6.10;77.66;101087.53;5008631;28;20065;-43
2023/04/25 00:10:05;;;;;;;3.35;0.95;;;;;;;6.11;78.00;101097.41;5008912;28;20076;-42
2023/04/25 00:12:33;;;;;;;4.35;2.22;;;;;;;6.08;77.98;101104.34;5008367;28;20034;-42
2023/04/25 00:15:00;;;;;;;1.58;0.93;;;;;;;6.07;78.24;101101.88;5009118;28;20049;-43
2023/04/25 00:17:27;;;;;;;6.10;1.02;;;;;;;6.07;78.13;101104.63;5008332;28;20052;-46
2023/04/25 00:19:53;;;;;;;2.83;1.10;;;;;;;6.05;78.31;101106.88;5008660;28;20100;-42
2023/04/25 00:22:20;;;;;;;2.85;1.25;;;;;;;6.02;78.47;101108.31;5008620;28;20061;-43
2023/04/25 00:24:47;;;;;;;1.70;1.08;;;;;;;5.99;78.63;101108.91;5008335;28;20061;-42
2023/04/25 00:27:14;;;;;;;1.00;0.88;;;;;;;5.95;78.75;101107.09;4990722;28;20085;-43
2023/04/25 00:29:41;;;;;;;0.93;0.70;;;;;;;5.95;78.92;101104.34;5008309;28;20065;-48
2023/04/25 00:32:07;;;;;;;7.22;1.38;;;;;;;5.97;79.21;101099.34;5021231;28;20050;-42
2023/04/25 00:34:34;;;;;;;1.17;0.90;;;;;;;5.98;79.09;101095.47;5008386;28;20057;-42
2023/04/25 00:37:03;;;;;;;1.70;1.40;;;;;;;5.94;78.94;101097.19;5008485;28;20077;-43
2023/04/25 00:39:30;;;;;;;4.20;1.02;;;;;;;5.89;79.09;101097.31;5008514;28;20161;-43
2023/04/25 00:41:57;;;;;;;1.25;1.13;;;;;;;5.84;79.14;101097.38;5008113;28;20137;-46
2023/04/25 00:44:24;;;;;;;1.88;1.00;;;;;;;5.82;79.28;101094.94;5004465;28;20050;-48
2023/04/25 00:46:52;;;;;;;3.05;1.30;;;;;;;5.82;79.43;101097.69;5009203;28;20046;-44
2023/04/25 00:49:19;;;;;;;2.38;1.05;;;;;;;5.81;79.44;101104.28;5008070;28;20069;-42
2023/04/25 00:51:45;;;;;;;2.38;1.42;;;;;;;5.82;79.58;101096.88;5008612;28;20037;-44
2023/04/25 00:54:14;;;;;;;4.63;1.30;;;;;;;5.78;79.83;101090.34;5006712;28;20061;-46
2023/04/25 00:56:41;;;;;;;2.25;1.38;;;;;;;5.78;79.92;101095.84;5009898;28;20408;-43
2023/04/25 00:59:09;;;;;;;1.30;1.20;;;;;;;5.78;79.46;101095.84;5011908;28;20056;-43
2023/04/25 01:01:37;;;;;;;1.40;1.08;;;;;;;5.72;79.65;101091.59;5011475;28;20061;-42
2023/04/25 01:04:04;;;;;;;2.28;1.08;;;;;;;5.70;80.01;101094.63;5013664;28;20060;-43
2023/04/25 01:06:31;;;;;;;2.13;1.73;;;;;;;5.69;80.10;101094.94;5022593;28;20058;-43
2023/04/25 01:08:59;;;;;;;2.05;1.10;;;;;;;5.67;80.14;101099.91;5010325;28;20128;-43
2023/04/25 01:11:26;;;;;;;5.00;1.17;;;;;;;5.66;80.25;101103.78;5011528;28;20459;-43
2023/04/25 01:13:53;;;;;;;3.53;1.80;;;;;;;5.65;80.33;101107.63;5011340;28;20062;-42
2023/04/25 01:16:20;;;;;;;3.55;1.35;;;;;;;5.65;80.17;101104.88;5012001;28;20057;-50
2023/04/25 01:18:47;;;;;;;2.33;1.25;;;;;;;5.65;80.28;101110.38;5011681;28;20049;-42
2023/04/25 01:21:14;;;;;;;2.15;1.38;;;;;;;5.65;80.49;101107.63;5011984;28;20510;-45
2023/04/25 01:23:42;;;;;;;2.65;1.42;;;;;;;5.59;80.31;101103.38;5011887;28;20038;-43
2023/04/25 01:26:11;;;;;;;1.95;1.08;;;;;;;5.54;80.40;101094.09;5012191;28;20045;-42
2023/04/25 01:28:41;;;;;;;1.83;1.67;;;;;;;5.52;80.52;101098.25;5011197;28;20053;-43
2023/04/25 01:31:08;;;;;;;4.65;1.10;;;;;;;5.45;80.54;101103.34;5011598;28;20057;-44
2023/04/25 01:33:35;;;;;;;4.72;1.40;;;;;;;5.43;80.66;101095.41;5011459;28;20045;-43
2023/04/25 01:36:02;;;;;;;5.25;1.23;;;;;;;5.42;80.56;101096.53;5011630;28;20046;-43
2023/04/25 01:38:29;;;;;;;2.97;0.90;;;;;;;5.39;80.67;101099.06;5011322;28;20431;-43
2023/04/25 01:40:56;;;;;;;2.45;1.33;;;;;;;5.36;81.03;101095.00;5011159;28;20046;-43
2023/04/25 01:43:23;;;;;;;3.22;1.17;;;;;;;5.34;81.07;101091.72;5010365;28;20488;-44
2023/04/25 01:45:50;;;;;;;2.95;1.58;;;;;;;5.35;80.69;101090.59;5009855;28;20045;-43
2023/04/25 01:48:17;;;;;;;4.28;1.50;;;;;;;5.32;80.61;101085.72;5011126;28;20503;-44
2023/04/25 01:50:45;;;;;;;2.75;1.52;;;;;;;5.28;80.90;101079.22;5010989;28;20058;-43
2023/04/25 01:53:13;;;;;;;2.53;1.33;;;;;;;5.24;80.98;101074.63;5010629;28;20575;-43
2023/04/25 01:55:40;;;;;;;2.83;1.40;;;;;;;5.25;80.72;101081.72;5011396;28;20057;-44
2023/04/25 01:58:12;;;;;;;4.47;1.52;;;;;;;5.28;80.94;101083.88;5010239;28;20046;-44
2023/04/25 02:00:40;;;;;;;2.67;1.30;;;;;;;5.27;80.83;101094.03;5010340;28;20052;-44
2023/04/25 02:03:08;;;;;;;3.53;1.67;;;;;;;5.27;80.66;101085.00;5010662;28;20052;-44
2023/04/25 02:05:39;;;;;;;3.22;1.13;;;;;;;5.26;80.80;101084.19;5010652;28;20048;-43
2023/04/25 02:08:08;;;;;;;2.83;2.20;;;;;;;5.22;80.72;101083.16;5009705;28;20046;-44
2023/04/25 02:10:35;;;;;;;3.17;1.45;;;;;;;5.19;80.64;101082.97;5010382;28;20053;-47
2023/04/25 02:13:02;;;;;;;4.25;2.20;;;;;;;5.17;81.22;101091.47;5010817;28;20060;-50
2023/04/25 02:15:28;;;;;;;1.60;1.50;;;;;;;5.15;81.07;101088.22;5010478;28;20467;-44
2023/04/25 02:17:55;;;;;;;5.80;1.52;;;;;;;5.15;80.87;101093.72;5010239;28;20403;-44
2023/04/25 02:20:24;;;;;;;2.20;1.42;;;;;;;5.13;81.12;101095.94;5009967;28;20088;-44
2023/04/25 02:22:51;;;;;;;4.75;2.20;;;;;;;5.09;81.30;101100.41;5010236;28;20540;-43
2023/04/25 02:25:19;;;;;;;4.93;1.95;;;;;;;5.09;81.13;101092.16;5009880;28;20496;-43
2023/04/25 02:27:47;;;;;;;9.82;1.90;;;;;;;5.07;81.41;101086.16;5010111;28;20041;-47
2023/04/25 02:30:14;;;;;;;4.15;1.55;;;;;;;5.07;81.34;101086.16;5010306;28;20076;-44
2023/04/25 02:32:41;;;;;;;4.25;1.50;;;;;;;5.06;81.46;101090.00;5010113;28;20109;-47
2023/04/25 02:35:08;;;;;;;3.88;1.45;;;;;;;5.03;81.21;101101.59;5010242;28;20050;-43
2023/04/25 02:37:37;;;;;;;5.63;2.20;;;;;;;5.00;81.18;101084.94;5009985;28;20045;-43
2023/04/25 02:40:05;;;;;;;3.35;1.45;;;;;;;4.97;81.71;101094.56;5009790;28;20038;-44
2023/04/25 02:42:32;;;;;;;2.47;1.38;;;;;;;4.96;81.80;101090.19;5008353;28;20054;-43
2023/04/25 02:45:01;;;;;;;3.50;1.80;;;;;;;4.97;81.69;101089.09;5009608;28;20138;-47
2023/04/25 02:47:27;;;;;;;6.00;2.17;;;;;;;4.98;81.96;101098.94;5010596;28;20050;-44
2023/04/25 02:49:54;;;;;;;3.63;1.70;;;;;;;5.01;81.97;101098.34;5009357;28;20057;-44
2023/04/25 02:52:21;;;;;;;3.53;1.27;;;;;;;5.06;82.07;101101.00;5009480;28;20053;-44
2023/04/25 02:54:48;;;;;;;6.32;1.70;;;;;;;5.10;82.16;101092.97;5009736;28;20053;-43
2023/04/25 02:57:15;;;;;;;3.13;2.03;;;;;;;5.11;81.74;101091.88;5009733;28;20492;-44
2023/04/25 02:59:41;;;;;;;7.80;2.75;;;;;;;5.10;82.02;101091.06;5009691;28;20639;-45
2023/04/25 03:02:08;;;;;;;3.00;1.60;;;;;;;5.12;81.98;101093.50;5054585;22;20061;-43
2023/04/25 03:04:35;;;;;;;5.15;1.90;;;;;;;5.10;81.75;101102.03;5029725;28;20056;-43
2023/04/25 03:07:02;;;;;;;4.47;1.40;;;;;;;5.10;81.54;101096.56;5028359;28;20053;-44
2023/04/25 03:09:29;;;;;;;2.40;1.80;;;;;;;5.12;81.70;101099.78;5029104;28;20103;-46
2023/04/25 03:11:55;;;;;;;3.28;1.60;;;;;;;5.08;81.97;101087.81;5027605;28;20049;-43
2023/04/25 03:14:22;;;;;;;3.78;1.58;;;;;;;5.08;82.05;101093.28;5028868;28;20064;-43
2023/04/25 03:16:49;;;;;;;3.60;1.77;;;;;;;5.10;82.29;101085.56;5029438;28;20052;-43
2023/04/25 03:19:18;;;;;;;5.05;1.95;;;;;;;5.11;82.08;101081.69;5028567;28;20534;-44
2023/04/25 03:21:45;;;;;;;6.25;1.75;;;;;;;5.10;82.15;101079.25;5029645;28;20052;-44
2023/04/25 03:24:12;;;;;;;4.80;1.75;;;;;;;5.05;82.24;101080.16;5029238;28;20411;-49
2023/04/25 03:26:38;;;;;;;3.17;1.85;;;;;;;5.00;82.37;101080.25;5029539;28;20049;-48
2023/04/25 03:29:05;;;;;;;4.00;1.50;;;;;;;4.93;82.34;101088.03;5016278;28;20072;-44
2023/04/25 03:31:32;;;;;;;8.38;2.35;;;;;;;4.88;82.24;101086.19;5027513;28;20052;-44
2023/04/25 03:33:59;;;;;;;5.75;1.63;;;;;;;4.82;82.16;101097.53;5029273;28;20076;-44
2023/04/25 03:36:27;;;;;;;8.27;1.80;;;;;;;4.75;82.53;101083.41;5029262;28;20041;-43
2023/04/25 03:38:54;;;;;;;2.42;1.38;;;;;;;4.70;82.58;101091.72;5029197;28;20038;-49
2023/04/25 03:41:21;;;;;;;4.97;2.10;;;;;;;4.65;82.52;101094.53;5029218;28;20049;-44
2023/04/25 03:43:47;;;;;;;3.40;2.03;;;;;;;4.59;82.47;101090.22;5030305;28;20378;-43
2023/04/25 03:46:14;;;;;;;5.20;1.98;;;;;;;4.56;82.68;101088.91;5033601;28;20056;-46
2023/04/25 03:48:41;;;;;;;8.20;1.83;;;;;;;4.57;82.82;101092.44;5029048;28;20072;-43
2023/04/25 03:51:08;;;;;;;9.50;2.45;;;;;;;4.56;82.55;101090.81;5028728;28;20137;-43
2023/04/25 03:53:35;;;;;;;7.13;2.17;;;;;;;4.55;82.39;101091.94;5027582;28;20088;-46
2023/04/25 03:56:02;;;;;;;5.18;1.75;;;;;;;4.50;82.41;101084.59;5029538;28;20043;-43
2023/04/25 03:58:29;;;;;;;4.47;1.95;;;;;;;4.47;82.40;101087.13;5028575;28;20470;-43
2023/04/25 04:00:56;;;;;;;5.07;2.15;;;;;;;4.45;82.60;101083.88;5028253;28;20487;-47
2023/04/25 04:03:22;;;;;;;4.18;1.80;;;;;;;4.43;82.49;101088.81;5028493;28;20052;-43
2023/04/25 04:05:50;;;;;;;15.88;3.08;;;;;;;4.39;82.48;101085.88;5028834;28;20435;-43
2023/04/25 04:08:17;;;;;;;8.50;2.50;;;;;;;4.37;82.71;101081.78;5027617;28;20055;-43
2023/04/25 04:10:43;;;;;;;3.25;1.60;;;;;;;4.34;82.50;101085.13;5028392;28;20095;-45
2023/04/25 04:13:10;;;;;;;3.25;2.33;;;;;;;4.31;83.01;101090.06;5028387;28;20045;-43
2023/04/25 04:15:37;;;;;;;4.35;2.05;;;;;;;4.29;82.91;101094.22;5028191;28;20049;-43
2023/04/25 04:18:03;;;;;;;3.53;1.75;;;;;;;4.28;82.58;101090.69;5028491;28;20469;-44
2023/04/25 04:20:30;;;;;;;5.28;2.03;;;;;;;4.27;82.68;101088.22;5028413;28;20411;-43
2023/04/25 04:22:57;;;;;;;6.35;1.95;;;;;;;4.26;82.94;101087.38;5028418;28;20037;-43
2023/04/25 04:25:24;;;;;;;2.88;2.13;;;;;;;4.23;83.07;101082.53;5028172;28;20049;-43
2023/04/25 04:27:55;;;;;;;5.57;1.77;;;;;;;4.26;83.28;101092.88;5029246;28;20045;-43
2023/04/25 04:30:29;;;;;;;9.15;2.25;;;;;;;4.32;82.95;101101.84;5030047;28;20041;-43
2023/04/25 04:32:56;;;;;;;5.10;2.20;;;;;;;4.32;82.82;101088.97;5031976;28;20488;-43
2023/04/25 04:35:23;;;;;;;6.55;2.45;;;;;;;4.28;82.37;101101.63;5031922;28;20041;-48
2023/04/25 04:37:50;;;;;;;10.50;3.38;;;;;;;4.26;82.48;101092.88;5032224;28;20132;-43
2023/04/25 04:40:17;;;;;;;12.75;5.55;;;;;;;4.18;82.49;101101.75;5032134;28;20049;-43
2023/04/25 04:42:47;;;;;;;20.23;7.05;;;;;;;4.11;82.99;101095.00;5030473;28;20454;-44
2023/04/25 04:45:16;;;;;;;12.77;5.65;;;;;;;4.05;82.80;101097.00;5037938;28;20157;-46
2023/04/25 04:47:42;;;;;;;16.38;7.07;;;;;;;4.05;83.03;101091.50;5031926;28;20053;-43
2023/04/25 04:50:10;;;;;;;16.60;6.30;;;;;;;4.08;82.97;101095.59;5031922;28;20092;-43
2023/04/25 04:52:37;;;;;;;13.82;7.07;;;;;;;4.10;82.64;101104.34;5031684;28;20049;-44
2023/04/25 04:55:05;;;;;;;12.32;6.35;;;;;;;4.11;82.71;101109.53;5031891;28;20506;-43
2023/04/25 04:57:32;;;;;;;16.83;6.72;;;;;;;4.11;82.85;101112.25;5031819;28;20046;-46
2023/04/25 04:59:59;;;;;;;17.48;8.68;;;;;;;4.09;82.65;101106.28;5031550;28;20388;-43
2023/04/25 05:02:26;;;;;;;12.80;6.63;;;;;;;4.08;82.76;101112.03;5031655;28;20314;-43
2023/04/25 05:04:53;;;;;;;18.15;6.85;;;;;;;4.03;82.69;101115.66;5031564;28;20040;-43
2023/04/25 05:07:20;;;;;;;15.57;5.97;;;;;;;3.91;82.80;101122.66;5031591;28;20041;-43
2023/04/25 05:09:47;;;;;;;16.27;4.68;;;;;;;3.82;82.91;101110.69;5031405;28;20037;-43
2023/04/25 05:12:14;;;;;;;7.80;3.40;;;;;;;3.78;83.37;101113.22;5031384;28;20103;-43
2023/04/25 05:14:40;;;;;;;11.80;3.88;;;;;;;3.72;83.65;101111.63;5022483;28;20112;-43
2023/04/25 05:17:08;;;;;;;9.07;3.38;;;;;;;3.73;83.71;101109.72;5031460;28;20084;-43
2023/04/25 05:19:35;;;;;;;11.32;4.38;;;;;;;3.78;83.88;101121.44;5031735;28;20056;-43
2023/04/25 05:22:02;;;;;;;11.57;3.88;;;;;;;3.85;83.70;101124.63;5031000;28;20046;-43
2023/04/25 05:24:30;;;;;;;11.98;4.47;;;;;;;3.88;83.54;101129.53;5031068;28;20045;-44
2023/04/25 05:26:57;;;;;;;12.88;4.82;;;;;;;3.93;83.12;101129.47;5031225;28;20050;-44
2023/04/25 05:29:24;;;;;;;5.80;2.95;;;;;;;3.93;82.95;101124.00;5031179;28;20057;-43
2023/04/25 05:31:50;;;;;;;6.82;3.60;;;;;;;3.95;83.31;101130.00;5034463;28;20041;-45
2023/04/25 05:34:17;;;;;;;8.35;3.17;;;;;;;3.95;82.83;101135.47;5031182;28;20112;-43
2023/04/25 05:36:44;;;;;;;9.30;3.42;;;;;;;3.97;83.31;101130.50;5031308;28;20060;-44
2023/04/25 05:39:11;;;;;;;6.75;2.95;;;;;;;3.97;82.88;101127.75;5031130;28;20413;-43
2023/04/25 05:41:37;;;;;;;9.63;3.88;;;;;;;3.91;83.12;101128.94;5030454;28;20041;-44
2023/04/25 05:44:04;;;;;;;5.78;3.35;;;;;;;3.84;83.52;101135.88;5034438;28;20053;-43
2023/04/25 05:46:31;;;;;;;7.93;3.95;;;;;;;3.85;83.62;101141.06;5032926;28;20487;-43
2023/04/25 05:48:58;;;;;;;8.15;3.13;;;;;;;3.90;83.78;101131.97;5030885;28;20521;-45
2023/04/25 05:51:26;;;;;;;6.57;3.40;;;;;;;3.96;83.84;101144.50;5030472;28;20091;-43
2023/04/25 05:53:52;;;;;;;8.40;3.92;;;;;;;3.98;83.34;101136.81;5031156;28;20138;-45
2023/04/25 05:56:19;;;;;;;6.47;3.50;;;;;;;4.03;83.63;101147.69;5030592;28;20038;-49
2023/04/25 05:58:46;;;;;;;9.02;3.92;;;;;;;4.08;83.31;101150.38;5030560;28;20461;-43
2023/04/25 06:01:14;;;;;;;5.53;3.80;;;;;;;4.11;83.46;101142.41;5030119;28;20522;-42
2023/04/25 06:03:42;;;;;;;7.97;3.65;;;;;;;4.11;83.38;101141.56;5030382;28;20156;-43
2023/04/25 06:06:09;;;;;;;12.45;4.70;;;;;;;4.13;83.46;101139.38;5030288;28;20065;-45
2023/04/25 06:08:37;;;;;;;6.43;3.67;;;;;;;4.13;83.58;101142.91;5030542;28;20106;-43
2023/04/25 06:11:04;;;;;;;6.07;3.83;;;;;;;4.15;83.44;101156.34;5030695;28;20427;-43
2023/04/25 06:13:31;;;;;;;12.13;4.78;;;;;;;4.18;83.65;101144.81;5030288;28;20049;-49
2023/04/25 06:15:58;;;;;;;7.00;3.50;;;;;;;4.21;83.77;101149.66;5020843;28;20042;-43
2023/04/25 06:18:24;;;;;;;8.57;3.88;;;;;;;4.24;83.49;101149.91;5029933;28;20140;-43
2023/04/25 06:20:51;;;;;;;8.52;4.03;;;;;;;4.31;83.49;101155.03;5029861;28;20057;-51
2023/04/25 06:23:18;;;;;;;7.13;3.95;;;;;;;4.37;83.79;101153.84;5029982;28;20049;-43
2023/04/25 06:25:44;;;;;;;7.78;4.20;;;;;;;4.38;83.80;101150.00;5029920;28;20415;-43
2023/04/25 06:28:11;;;;;;;8.20;3.45;;;;;;;4.40;83.86;101149.69;5030753;28;20050;-44
2023/04/25 06:30:38;;;;;;;10.07;3.30;;;;;;;4.40;83.64;101147.78;5040552;28;20098;-43
2023/04/25 06:33:04;;;;;;;8.57;5.63;;;;;;;4.42;83.61;101153.00;5050339;28;20087;-44
2023/04/25 06:35:31;;;;;;;10.82;4.03;;;;;;;4.47;83.76;101159.22;5050337;28;20056;-44
2023/04/25 06:37:58;;;;;;;15.15;4.65;;;;;;;4.52;83.95;101167.38;5049784;28;20059;-43
2023/04/25 06:40:25;;;;;;;7.32;3.85;;;;;;;4.57;84.04;101170.06;5050141;28;20048;-43
2023/04/25 06:42:51;;;;;;;9.30;3.63;;;;;;;4.59;84.06;101167.00;5050304;28;20045;-43
2023/04/25 06:45:18;;;;;;;6.95;4.03;;;;;;;4.61;84.16;101164.78;5034888;28;20087;-43
2023/04/25 06:47:45;;;;;;;8.65;3.80;;;;;;;4.65;83.83;101163.09;5029930;28;20490;-43
2023/04/25 06:50:11;;;;;;;5.53;2.70;;;;;;;4.70;84.30;101163.00;5029999;28;20139;-44
2023/04/25 06:52:38;;;;;;;8.88;3.58;;;;;;;4.76;84.13;101167.31;5029728;28;20045;-44
2023/04/25 06:55:05;;;;;;;6.82;3.13;;;;;;;4.82;83.91;101160.63;5029500;28;20075;-43
2023/04/25 06:57:32;;;;;;;8.25;3.03;;;;;;;4.88;84.01;101156.72;5029631;28;20688;-43
2023/04/25 06:59:59;;;;;;;8.05;4.05;;;;;;;4.92;83.96;101158.56;5029879;28;20108;-47
2023/04/25 07:02:28;;;;;;;7.85;3.15;;;;;;;4.98;84.13;101159.28;5029719;28;20049;-45
2023/04/25 07:04:59;;;;;;;5.50;3.25;;;;;;;5.04;83.81;101157.28;5029583;28;20495;-44
2023/04/25 07:07:26;;;;;;;8.43;3.55;;;;;;;5.07;83.71;101149.28;5029322;28;20077;-43
2023/04/25 07:09:53;;;;;;;11.80;3.58;;;;;;;5.15;83.75;101156.84;5029184;28;20057;-45
2023/04/25 07:12:20;;;;;;;9.57;3.67;;;;;;;5.24;83.74;101146.78;5029448;28;20037;-43
2023/04/25 07:14:46;;;;;;;14.55;3.80;;;;;;;5.33;83.74;101155.97;5029408;28;20045;-42
2023/04/25 07:17:13;;;;;;;7.97;3.55;;;;;;;5.44;83.65;101153.88;5029278;28;20049;-44
2023/04/25 07:19:40;;;;;;;7.57;3.50;;;;;;;5.57;83.37;101150.34;5029623;28;20049;-44
2023/04/25 07:22:06;;;;;;;9.65;3.72;;;;;;;5.65;83.57;101151.59;5029055;28;20511;-44
2023/04/25 07:24:33;;;;;;;8.85;3.67;;;;;;;5.76;83.43;101161.28;5029066;28;20077;-48
2023/04/25 07:27:01;;;;;;;8.65;3.47;;;;;;;5.88;83.34;101162.44;5029365;28;20041;-43
2023/04/25 07:29:27;;;;;;;4.95;3.17;;;;;;;5.99;83.12;101154.81;5025151;28;20049;-42
2023/04/25 07:31:54;;;;;;;10.55;3.33;;;;;;;6.08;83.13;101155.75;5033079;28;20091;-45
2023/04/25 07:34:21;;;;;;;8.23;3.45;;;;;;;6.11;82.88;101158.69;5028864;28;20164;-43
2023/04/25 07:36:48;;;;;;;7.88;3.33;;;;;;;6.14;83.15;101160.03;5029803;28;20042;-44
2023/04/25 07:39:14;;;;;;;8.30;2.83;;;;;;;6.18;82.98;101152.78;5028864;28;20060;-43
2023/04/25 07:41:41;;;;;;;6.22;3.05;;;;;;;6.21;83.22;101159.59;5028572;28;20091;-44
2023/04/25 07:44:08;;;;;;;7.65;3.80;;;;;;;6.27;83.26;101148.22;5032760;28;20044;-48
2023/04/25 07:46:34;;;;;;;11.45;3.25;;;;;;;6.33;83.27;101152.47;5026255;28;20045;-45
2023/04/25 07:49:01;;;;;;;14.98;4.03;;;;;;;6.42;83.48;101158.06;5016120;28;20530;-44
2023/04/25 07:51:28;;;;;;;8.65;3.50;;;;;;;6.48;83.77;101165.91;5009474;28;20037;-43
2023/04/25 07:53:55;;;;;;;5.82;3.28;;;;;;;6.60;83.89;101162.63;5031296;28;20056;-43
2023/04/25 07:56:21;;;;;;;10.27;2.90;;;;;;;6.79;84.33;101156.97;5028556;28;20041;-44
2023/04/25 07:58:48;;;;;;;11.93;3.88;;;;;;;6.91;84.47;101163.53;5028451;28;20486;-46
2023/04/25 08:01:16;;;;;;;9.50;4.45;;;;;;;7.06;85.18;101165.16;5028009;28;20080;-43
2023/04/25 08:03:43;;;;;;;9.88;3.13;;;;;;;7.19;85.40;101162.34;5028838;28;20052;-44
2023/04/25 08:06:10;;;;;;;9.38;3.88;;;;;;;7.34;86.01;101161.13;5030932;28;20041;-43
2023/04/25 08:08:37;;;;;;;9.25;3.53;;;;;;;7.53;86.41;101160.94;5025934;28;20053;-45
2023/04/25 08:11:05;;;;;;;15.07;6.50;;;;;;;7.68;86.93;101161.34;5008581;28;20053;-44
2023/04/25 08:13:32;;;;;;;6.13;3.00;;;;;;;7.85;87.63;101166.97;5004557;28;20411;-48
2023/04/25 08:15:59;;;;;;;7.90;3.70;;;;;;;8.01;88.01;101164.63;5006043;28;20073;-44
2023/04/25 08:18:25;;;;;;;11.25;3.67;;;;;;;8.14;88.59;101162.88;5006737;28;20053;-53
2023/04/25 08:20:52;;;;;;;12.80;4.45;;;;;;;8.44;89.90;101164.81;5003945;28;20068;-52
2023/04/25 08:23:19;;;;;;;5.05;2.30;;;;;;;8.91;91.79;101171.38;5005303;28;20136;-51
2023/04/25 08:25:46;;;;;;;4.05;2.45;;;;;;;9.57;93.69;101167.28;5000254;28;20402;-46
2023/04/25 08:28:14;;;;;;;6.85;2.38;;;;;;;10.36;94.27;101173.88;5005922;28;20081;-46
2023/04/25 08:30:41;;;;;;;8.57;2.28;;;;;;;11.17;93.45;101167.97;5004628;28;20192;-46
2023/04/25 08:33:08;;;;;;;6.85;3.60;;;;;;;12.05;91.46;101178.66;5004714;28;20232;-47
2023/04/25 08:35:35;;;;;;;11.73;3.25;;;;;;;12.88;88.56;101178.19;5012567;28;20045;-47
2023/04/25 08:38:02;;;;;;;11.40;3.08;;;;;;;13.64;84.82;101184.47;5023952;28;21429;-46
2023/04/25 08:40:30;;;;;;;9.80;2.28;;;;;;;14.39;81.79;101187.28;5022785;28;20050;-46
2023/04/25 08:42:57;;;;;;;7.03;3.17;;;;;;;14.64;78.14;101188.66;5024322;28;20085;-52
2023/04/25 08:45:27;;;;;;;6.00;2.45;;;;;;;14.99;75.72;101191.47;5023159;28;20045;-45
2023/04/25 08:47:56;;;;;;;3.30;2.00;;;;;;;15.50;72.92;101187.47;5024009;28;20072;-43
2023/04/25 08:50:24;;;;;;;4.60;1.88;;;;;;;15.93;70.42;101191.91;5022819;28;20786;-43
2023/04/25 08:52:54;;;;;;;4.30;1.95;;;;;;;15.72;66.73;101189.50;5023916;28;20477;-43
2023/04/25 08:55:21;;;;;;;6.07;2.08;;;;;;;14.66;65.82;101188.34;5023111;28;20047;-47
2023/04/25 08:57:50;;;;;;;8.32;2.55;;;;;;;13.74;66.84;101188.72;5021653;28;20598;-44
2023/04/25 09:00:18;;;;;;;3.85;1.90;;;;;;;14.20;66.39;101178.78;5022602;28;20505;-43
2023/04/25 09:02:47;;;;;;;4.53;2.05;;;;;;;13.91;64.92;101182.81;5023530;28;20393;-44
2023/04/25 09:05:14;;;;;;;5.30;1.65;;;;;;;13.34;64.49;101184.00;5022436;28;20576;-46
2023/04/25 09:07:41;;;;;;;5.15;1.27;;;;;;;12.76;64.72;101187.38;5023598;28;20140;-45
2023/04/25 09:10:08;;;;;;;9.02;3.28;;;;;;;12.20;64.74;101187.13;5023071;28;20054;-45
2023/04/25 09:12:35;;;;;;;3.92;1.60;;;;;;;11.71;65.22;101182.63;5022872;28;20041;-51
2023/04/25 09:15:08;;;;;;;4.43;1.52;;;;;;;11.67;66.04;101172.53;5023080;28;20049;-48
2023/04/25 09:17:39;;;;;;;7.05;2.53;;;;;;;12.14;64.61;101179.38;5023145;28;20542;-46
2023/04/25 09:20:12;;;;;;;7.35;1.50;;;;;;;11.86;64.22;101178.41;5022927;28;21362;-44
2023/04/25 09:22:39;;;;;;;;;;;;;;;11.38;64.55;101179.84;5023585;28;20053;-46
2023/04/25 09:25:11;;;;;;;3.08;1.23;;;;;;;11.19;64.83;101182.28;5023052;28;19937;-49
2023/04/25 09:27:50;;;;;;;3.72;1.58;;;;;;;11.10;64.91;101181.53;5023299;28;20049;-51
2023/04/25 09:30:18;;;;;;;6.47;1.42;;;;;;;11.28;65.36;101182.22;5023539;28;20128;-45
2023/04/25 09:32:45;;;;;;;1.85;1.05;;;;;;;12.11;63.44;101178.09;5023295;28;20087;-49
2023/04/25 09:35:23;;;;;;;15.80;2.40;;;;;;;13.21;62.56;101187.19;5023980;28;20136;-46
2023/04/25 09:37:50;;;;;;;8.18;3.88;;;;;;;14.12;61.30;101179.78;5023354;28;20060;-46
2023/04/25 09:40:18;;;;;;;8.88;4.05;;;;;;;15.01;60.54;101189.94;5022504;28;20045;-49
2023/04/25 09:42:45;;;;;;;3.17;1.40;;;;;;;15.96;59.03;101188.38;5022885;28;20045;-45
2023/04/25 09:45:14;;;;;;;1.95;0.90;;;;;;;16.57;58.03;101188.25;5023144;28;20048;-47
2023/04/25 09:47:43;;;;;;;3.47;1.85;;;;;;;17.12;56.78;101195.06;5022714;28;20053;-46
2023/04/25 09:50:15;;;;;;;3.03;1.90;;;;;;;17.66;55.46;101202.19;5022958;28;20049;-50
2023/04/25 09:52:42;;;;;;;4.72;2.33;;;;;;;17.09;53.82;101200.59;5022834;28;20058;-45
2023/04/25 09:55:09;;;;;;;4.65;2.60;;;;;;;16.23;54.97;101198.41;5021930;28;20038;-48
2023/04/25 09:57:39;;;;;;;5.60;1.27;;;;;;;15.65;54.95;101200.50;5022409;28;20061;-45
2023/04/25 10:00:11;;;;;;;4.88;1.30;;;;;;;14.70;55.30;101194.78;5022637;28;20512;-49
2023/04/25 10:02:42;;;;;;;3.95;1.48;;;;;;;14.26;57.30;101185.72;5021985;28;20806;-48
2023/04/25 10:05:10;;;;;;;3.35;1.60;;;;;;;15.16;56.05;101194.69;5022218;28;20049;-46
2023/04/25 10:07:38;;;;;;;3.55;1.50;;;;;;;15.31;54.92;101194.97;5014660;28;20053;-51
2023/04/25 10:10:05;;;;;;;4.63;1.27;;;;;;;15.00;54.78;101199.50;5022842;28;20080;-45
2023/04/25 10:12:33;;;;;;;5.18;1.50;;;;;;;15.08;54.90;101204.06;5021269;28;20047;-49
2023/04/25 10:15:01;;;;;;;6.43;1.67;;;;;;;14.66;54.36;101203.06;5021900;28;20042;-45
2023/04/25 10:17:28;;;;;;;4.80;1.30;;;;;;;13.83;55.35;101203.25;5022145;28;20061;-45
2023/04/25 10:19:56;;;;;;;2.67;1.33;;;;;;;13.08;56.67;101197.53;5015705;28;20119;-46
2023/04/25 10:22:28;;;;;;;4.22;1.58;;;;;;;12.40;57.46;101190.16;5010039;28;20065;-46
2023/04/25 10:24:56;;;;;;;6.68;1.70;;;;;;;11.81;57.91;101193.28;5009942;28;20136;-47
2023/04/25 10:27:23;;;;;;;8.32;2.05;;;;;;;11.38;58.80;101192.88;5010151;28;20065;-45
2023/04/25 10:30:04;;;;;;;5.07;1.40;;;;;;;11.11;59.52;101199.78;5007828;28;20398;-45
2023/04/25 10:32:33;;;;;;;;;;;;;;;10.99;60.23;101196.94;5006092;28;20061;-47
2023/04/25 10:35:26;;;;;;;2.90;1.20;;;;;;;11.11;59.93;101188.72;5007591;28;19929;-46
2023/04/25 10:38:08;;;;;;;5.80;2.20;;;;;;;11.41;59.28;101189.44;5009342;28;20058;-46
2023/04/25 10:40:36;;;;;;;3.70;1.63;;;;;;;11.59;59.16;101200.03;5009035;28;20407;-47
2023/04/25 10:43:48;;;;;;;4.78;1.20;;;;;;;11.71;59.01;101195.69;5016774;28;20410;-47
2023/04/25 10:46:22;;;;;;;3.47;1.45;;;;;;;11.81;59.42;101196.06;5008125;28;21567;-46
2023/04/25 10:48:50;;;;;;;1.80;0.90;;;;;;;11.88;58.68;101195.53;5009831;28;20510;-50
2023/04/25 10:51:17;;;;;;;4.13;1.10;;;;;;;11.74;58.54;101201.38;5009137;28;20045;-49
2023/04/25 10:53:45;;;;;;;3.22;1.23;;;;;;;11.67;58.95;101203.88;5009145;28;20045;-45
2023/04/25 10:56:23;;;;;;;2.65;1.08;;;;;;;11.73;59.50;101198.94;5009545;28;20497;-50
2023/04/25 10:58:50;;;;;;;5.03;1.30;;;;;;;11.89;59.58;101203.47;5009833;28;20061;-48
2023/04/25 11:01:21;;;;;;;5.28;1.75;;;;;;;12.09;59.38;101188.75;5007752;28;20060;-45
2023/04/25 11:03:50;;;;;;;9.05;2.20;;;;;;;12.30;59.32;101196.97;5008797;28;20056;-47
2023/04/25 11:06:46;;;;;;;1.73;0.80;;;;;;;12.57;59.18;101193.53;5018651;28;20450;-47
2023/04/25 11:09:13;;;;;;;3.38;1.15;;;;;;;12.65;58.86;101198.16;5018912;28;20042;-49
2023/04/25 11:11:40;;;;;;;3.72;1.13;;;;;;;12.73;58.66;101193.63;5018584;28;20045;-48
2023/04/25 11:14:07;;;;;;;4.15;1.20;;;;;;;12.72;58.64;101190.03;5019475;28;20403;-48
2023/04/25 11:16:33;;;;;;;2.33;0.90;;;;;;;12.58;58.66;101192.34;5020187;28;20132;-50
2023/04/25 11:19:00;;;;;;;2.08;1.30;;;;;;;12.56;58.62;101189.13;5018589;28;20056;-46
2023/04/25 11:21:27;;;;;;;2.65;0.77;;;;;;;12.59;58.32;101193.16;5019065;28;20049;-51
2023/04/25 11:23:56;;;;;;;3.03;1.23;;;;;;;12.55;57.82;101183.91;5021091;28;20045;-48
2023/04/25 11:26:24;;;;;;;3.30;1.35;;;;;;;12.51;57.69;101178.25;5018236;28;20080;-49
2023/04/25 11:28:51;;;;;;;2.83;0.70;;;;;;;12.43;57.44;101184.72;5016076;28;20116;-46
2023/04/25 11:31:21;;;;;;;3.20;0.70;;;;;;;12.40;57.35;101182.63;5020632;28;20525;-45
2023/04/25 11:33:48;;;;;;;2.15;1.02;;;;;;;12.28;57.15;101195.69;5021342;28;20048;-49